Alsville, South Dakota
Current Conditions -  °F | °C
As of 11:53 AM on Thursday 29 Jan 2015 (Local Time) from KATY Reporting Station
Overcast Overcast  
Wind Chill: -11°   Ceiling: 1400
Heat Index: -3°   Visibility: 10mi
Dew Point: -7°   Wind: 21mph
Humidity: 78%   Direction: 340°NNW
Pressure: 30.4"   Gusts: 30mph
Location:  44.5892°N, 97.2322°W
Report Text: KATY 291753Z AUTO 34018G26KT 10SM OVC014 M03/M07 A3040 RMK AO2 PK WND 32027/1659 SLP318 T10331067 11028 21033 51025
Loading
Personal Weather Stations






























Interactive Weather Map New forecast layout! Learn more

10-Day Weather Forecast

Advertisements
Track Severe Weather on mobile